LFBP/PUF METAR and TAF weather

Enter ICAO airport designator
Station Type Date Time Source
LFBP METAR 2020/07/11 05:00 UTC NOAA

LFBP 110500Z AUTO 24004KT 200V260 9999 FEW006 BKN025 OVC030 16/16 Q1022 TEMPO 2500 -DZ BKN007


Station Type Date Time Source
LFBP Decoded METAR 2020/07/11 05:00 UTC NOAA

Pau, France (LFBP) 43-23N 000-25W 185M
Jul 11, 2020 - 01:00 AM EDT / 2020.07.11 0500 UTC
Wind: from the WSW (240 degrees) at 5 MPH (4 KT) (direction variable):0
Visibility: greater than 7 mile(s):0
Sky conditions: overcast
Temperature: 60 F (16 C)
Dew Point: 60 F (16 C)
Relative Humidity: 100%
Pressure (altimeter): 30.18 in. Hg (1022 hPa)
ob: LFBP 110500Z AUTO 24004KT 200V260 9999 FEW006 BKN025 OVC030 16/16 Q1022 TEMPO 2500 -DZ BKN007
cycle: 5

Station Type Date Time Source
LFBP TAF 2020/07/11 04:07 UTC NOAA

TAF
AMD LFBP 110400Z 1104/1124 27005KT 9999 FEW015 BKN030 PROB40
TEMPO 1104/1107 2500 -DZ BKN007
BECMG 1111/1113 05010KT
BECMG 1113/1116 CAVOK
BECMG 1120/1122 VRB02KT

Example: see airport list